sensor_id;sensor_type;location;lat;lon;timestamp;pressure;altitude;pressure_sealevel;temperature;humidity
75513;BME280;64090;49.770;18.760;2024-03-25T00:02:57;96292.48;;;3.17;84.74
75513;BME280;64090;49.770;18.760;2024-03-25T00:05:59;96291.46;;;3.14;84.85
75513;BME280;64090;49.770;18.760;2024-03-25T00:09:32;96294.89;;;3.11;84.73
75513;BME280;64090;49.770;18.760;2024-03-25T00:12:35;96295.55;;;3.07;85.12
75513;BME280;64090;49.770;18.760;2024-03-25T00:15:39;96295.49;;;3.04;84.84
75513;BME280;64090;49.770;18.760;2024-03-25T00:18:43;96296.33;;;3.02;84.94
75513;BME280;64090;49.770;18.760;2024-03-25T00:21:46;96294.80;;;3.03;85.32
75513;BME280;64090;49.770;18.760;2024-03-25T00:24:48;96295.21;;;3.06;86.06
75513;BME280;64090;49.770;18.760;2024-03-25T00:27:51;96292.70;;;3.09;86.96
75513;BME280;64090;49.770;18.760;2024-03-25T00:30:54;96289.77;;;3.14;86.53
75513;BME280;64090;49.770;18.760;2024-03-25T00:33:57;96282.91;;;3.17;86.34
75513;BME280;64090;49.770;18.760;2024-03-25T00:37:00;96287.50;;;3.21;86.14
75513;BME280;64090;49.770;18.760;2024-03-25T00:40:03;96286.77;;;3.22;85.96
75513;BME280;64090;49.770;18.760;2024-03-25T00:43:07;96288.36;;;3.22;85.31
75513;BME280;64090;49.770;18.760;2024-03-25T00:46:09;96287.98;;;3.20;86.65
75513;BME280;64090;49.770;18.760;2024-03-25T00:49:12;96281.78;;;3.17;86.15
75513;BME280;64090;49.770;18.760;2024-03-25T00:52:14;96276.94;;;3.17;86.30
75513;BME280;64090;49.770;18.760;2024-03-25T00:55:17;96273.45;;;3.14;86.68
75513;BME280;64090;49.770;18.760;2024-03-25T00:58:20;96269.68;;;3.11;86.57
75513;BME280;64090;49.770;18.760;2024-03-25T01:01:22;96266.64;;;3.07;85.57
75513;BME280;64090;49.770;18.760;2024-03-25T01:04:25;96265.82;;;2.98;85.63
75513;BME280;64090;49.770;18.760;2024-03-25T01:07:27;96263.58;;;2.88;85.89
75513;BME280;64090;49.770;18.760;2024-03-25T01:10:30;96265.76;;;2.81;85.76
75513;BME280;64090;49.770;18.760;2024-03-25T01:13:33;96262.59;;;2.71;86.20
75513;BME280;64090;49.770;18.760;2024-03-25T01:16:36;96264.14;;;2.63;86.21
75513;BME280;64090;49.770;18.760;2024-03-25T01:19:39;96263.87;;;2.57;86.45
75513;BME280;64090;49.770;18.760;2024-03-25T01:22:41;96270.88;;;2.54;85.70
75513;BME280;64090;49.770;18.760;2024-03-25T01:25:44;96262.38;;;2.45;86.22
75513;BME280;64090;49.770;18.760;2024-03-25T01:28:46;96255.80;;;2.34;87.00
75513;BME280;64090;49.770;18.760;2024-03-25T01:31:49;96258.88;;;2.27;87.08
75513;BME280;64090;49.770;18.760;2024-03-25T01:34:52;96256.67;;;2.22;86.23
75513;BME280;64090;49.770;18.760;2024-03-25T01:37:55;96251.48;;;2.17;86.22
75513;BME280;64090;49.770;18.760;2024-03-25T01:41:07;96253.85;;;2.12;86.15
75513;BME280;64090;49.770;18.760;2024-03-25T01:44:11;96247.31;;;2.06;86.07
75513;BME280;64090;49.770;18.760;2024-03-25T01:47:13;96247.76;;;1.98;86.20
75513;BME280;64090;49.770;18.760;2024-03-25T01:50:16;96241.59;;;1.92;86.55
75513;BME280;64090;49.770;18.760;2024-03-25T01:53:20;96237.98;;;1.91;87.05
75513;BME280;64090;49.770;18.760;2024-03-25T01:56:24;96244.75;;;1.94;87.13
75513;BME280;64090;49.770;18.760;2024-03-25T01:59:27;96240.70;;;1.97;86.16
75513;BME280;64090;49.770;18.760;2024-03-25T02:02:30;96250.71;;;1.98;85.64
75513;BME280;64090;49.770;18.760;2024-03-25T02:05:34;96247.71;;;1.95;85.40
75513;BME280;64090;49.770;18.760;2024-03-25T02:08:37;96244.58;;;1.89;85.87
75513;BME280;64090;49.770;18.760;2024-03-25T02:11:41;96241.67;;;1.85;87.37
75513;BME280;64090;49.770;18.760;2024-03-25T02:14:45;96238.94;;;1.89;86.99
75513;BME280;64090;49.770;18.760;2024-03-25T02:17:47;96230.33;;;1.94;86.47
75513;BME280;64090;49.770;18.760;2024-03-25T02:20:50;96225.33;;;2.00;86.55
75513;BME280;64090;49.770;18.760;2024-03-25T02:23:56;96231.77;;;2.07;86.66
75513;BME280;64090;49.770;18.760;2024-03-25T02:27:01;96236.52;;;2.14;86.64
75513;BME280;64090;49.770;18.760;2024-03-25T02:30:11;96242.59;;;2.21;86.83
75513;BME280;64090;49.770;18.760;2024-03-25T02:33:17;96249.44;;;2.31;86.01
75513;BME280;64090;49.770;18.760;2024-03-25T02:36:19;96254.49;;;2.38;85.74
75513;BME280;64090;49.770;18.760;2024-03-25T02:39:22;96255.54;;;2.41;86.30
75513;BME280;64090;49.770;18.760;2024-03-25T02:42:27;96257.52;;;2.48;85.54
75513;BME280;64090;49.770;18.760;2024-03-25T02:45:30;96259.17;;;2.52;86.78
75513;BME280;64090;49.770;18.760;2024-03-25T02:48:33;96260.84;;;2.57;87.13
75513;BME280;64090;49.770;18.760;2024-03-25T02:51:37;96263.73;;;2.64;87.11
75513;BME280;64090;49.770;18.760;2024-03-25T02:54:40;96265.59;;;2.67;88.29
75513;BME280;64090;49.770;18.760;2024-03-25T02:57:43;96269.21;;;2.71;88.84
75513;BME280;64090;49.770;18.760;2024-03-25T03:01:38;96267.19;;;2.72;90.29
75513;BME280;64090;49.770;18.760;2024-03-25T03:04:22;96270.80;;;2.74;90.12
75513;BME280;64090;49.770;18.760;2024-03-25T03:07:25;96270.84;;;2.72;89.52
75513;BME280;64090;49.770;18.760;2024-03-25T03:10:28;96271.38;;;2.68;90.96
75513;BME280;64090;49.770;18.760;2024-03-25T03:13:30;96268.26;;;2.65;91.16
75513;BME280;64090;49.770;18.760;2024-03-25T03:16:33;96267.70;;;2.64;90.72
75513;BME280;64090;49.770;18.760;2024-03-25T03:19:36;96265.48;;;2.61;92.87
75513;BME280;64090;49.770;18.760;2024-03-25T03:22:39;96263.57;;;2.59;93.05
75513;BME280;64090;49.770;18.760;2024-03-25T03:25:42;96269.13;;;2.58;94.37
75513;BME280;64090;49.770;18.760;2024-03-25T03:28:45;96269.85;;;2.58;92.91
75513;BME280;64090;49.770;18.760;2024-03-25T03:31:48;96269.48;;;2.58;93.50
75513;BME280;64090;49.770;18.760;2024-03-25T03:34:50;96272.86;;;2.59;92.30
75513;BME280;64090;49.770;18.760;2024-03-25T03:37:53;96269.27;;;2.60;93.18
75513;BME280;64090;49.770;18.760;2024-03-25T03:41:01;96269.39;;;2.60;93.12
75513;BME280;64090;49.770;18.760;2024-03-25T03:44:04;96267.82;;;2.60;93.19
75513;BME280;64090;49.770;18.760;2024-03-25T03:47:07;96262.40;;;2.60;93.86
75513;BME280;64090;49.770;18.760;2024-03-25T03:50:10;96263.63;;;2.62;94.14
75513;BME280;64090;49.770;18.760;2024-03-25T03:53:12;96260.27;;;2.62;93.62
75513;BME280;64090;49.770;18.760;2024-03-25T03:56:15;96262.49;;;2.61;93.08
75513;BME280;64090;49.770;18.760;2024-03-25T03:59:18;96258.77;;;2.58;93.15
75513;BME280;64090;49.770;18.760;2024-03-25T04:02:27;96263.55;;;2.56;93.11
75513;BME280;64090;49.770;18.760;2024-03-25T04:05:31;96269.23;;;2.56;92.89
75513;BME280;64090;49.770;18.760;2024-03-25T04:08:34;96271.77;;;2.55;93.42
75513;BME280;64090;49.770;18.760;2024-03-25T04:11:37;96271.04;;;2.54;93.31
75513;BME280;64090;49.770;18.760;2024-03-25T04:14:39;96267.76;;;2.52;93.55
75513;BME280;64090;49.770;18.760;2024-03-25T04:17:42;96265.73;;;2.52;93.27
75513;BME280;64090;49.770;18.760;2024-03-25T04:20:47;96265.86;;;2.51;93.09
75513;BME280;64090;49.770;18.760;2024-03-25T04:23:50;96266.68;;;2.48;94.03
75513;BME280;64090;49.770;18.760;2024-03-25T04:26:52;96267.19;;;2.46;94.34
75513;BME280;64090;49.770;18.760;2024-03-25T04:29:55;96266.04;;;2.44;95.29
75513;BME280;64090;49.770;18.760;2024-03-25T04:32:58;96268.89;;;2.42;95.16
75513;BME280;64090;49.770;18.760;2024-03-25T04:36:01;96272.08;;;2.42;95.40
75513;BME280;64090;49.770;18.760;2024-03-25T04:39:04;96269.86;;;2.41;95.17
75513;BME280;64090;49.770;18.760;2024-03-25T04:42:10;96268.00;;;2.41;95.34
75513;BME280;64090;49.770;18.760;2024-03-25T04:45:13;96265.36;;;2.39;95.60
75513;BME280;64090;49.770;18.760;2024-03-25T04:48:16;96265.48;;;2.38;96.23
75513;BME280;64090;49.770;18.760;2024-03-25T04:51:19;96273.12;;;2.40;96.10
75513;BME280;64090;49.770;18.760;2024-03-25T04:54:22;96274.48;;;2.44;95.87
75513;BME280;64090;49.770;18.760;2024-03-25T04:57:24;96271.15;;;2.46;95.75
75513;BME280;64090;49.770;18.760;2024-03-25T05:03:31;96275.22;;;2.53;96.18
75513;BME280;64090;49.770;18.760;2024-03-25T05:06:34;96276.72;;;2.57;95.84
75513;BME280;64090;49.770;18.760;2024-03-25T05:09:39;96272.89;;;2.65;95.14
75513;BME280;64090;49.770;18.760;2024-03-25T05:12:42;96277.24;;;2.71;95.04
75513;BME280;64090;49.770;18.760;2024-03-25T05:15:50;96277.98;;;2.78;94.35
75513;BME280;64090;49.770;18.760;2024-03-25T05:18:53;96283.21;;;2.82;94.60
75513;BME280;64090;49.770;18.760;2024-03-25T05:21:56;96287.52;;;2.87;94.60
75513;BME280;64090;49.770;18.760;2024-03-25T05:24:58;96292.64;;;2.91;95.02
75513;BME280;64090;49.770;18.760;2024-03-25T05:28:01;96290.55;;;2.99;94.24
75513;BME280;64090;49.770;18.760;2024-03-25T05:31:11;96291.21;;;3.05;94.08
75513;BME280;64090;49.770;18.760;2024-03-25T05:34:13;96292.48;;;3.10;94.13
75513;BME280;64090;49.770;18.760;2024-03-25T05:37:16;96292.83;;;3.13;94.21
75513;BME280;64090;49.770;18.760;2024-03-25T05:40:19;96299.61;;;3.19;94.11
75513;BME280;64090;49.770;18.760;2024-03-25T05:43:22;96300.49;;;3.27;93.82
75513;BME280;64090;49.770;18.760;2024-03-25T05:46:24;96303.06;;;3.40;93.57
75513;BME280;64090;49.770;18.760;2024-03-25T05:49:27;96304.01;;;3.55;93.18
75513;BME280;64090;49.770;18.760;2024-03-25T05:52:30;96312.34;;;3.77;92.74
75513;BME280;64090;49.770;18.760;2024-03-25T05:55:32;96312.95;;;3.94;92.22
75513;BME280;64090;49.770;18.760;2024-03-25T05:58:35;96316.50;;;4.07;91.98
75513;BME280;64090;49.770;18.760;2024-03-25T06:01:37;96317.06;;;4.12;91.36
75513;BME280;64090;49.770;18.760;2024-03-25T06:04:41;96320.39;;;4.19;91.33
75513;BME280;64090;49.770;18.760;2024-03-25T06:10:48;96327.01;;;4.29;90.92
75513;BME280;64090;49.770;18.760;2024-03-25T06:13:50;96327.84;;;4.40;90.73
75513;BME280;64090;49.770;18.760;2024-03-25T06:16:53;96328.08;;;4.61;90.33
75513;BME280;64090;49.770;18.760;2024-03-25T06:19:56;96328.97;;;4.88;89.81
75513;BME280;64090;49.770;18.760;2024-03-25T06:22:59;96328.56;;;5.09;88.83
75513;BME280;64090;49.770;18.760;2024-03-25T06:26:01;96323.19;;;5.17;87.85
75513;BME280;64090;49.770;18.760;2024-03-25T06:29:04;96327.23;;;5.27;87.38
75513;BME280;64090;49.770;18.760;2024-03-25T06:32:07;96323.36;;;5.33;87.70
75513;BME280;64090;49.770;18.760;2024-03-25T06:35:28;96323.96;;;5.24;86.80
75513;BME280;64090;49.770;18.760;2024-03-25T06:38:31;96331.86;;;5.17;87.23
75513;BME280;64090;49.770;18.760;2024-03-25T06:41:34;96332.27;;;5.14;86.81
75513;BME280;64090;49.770;18.760;2024-03-25T06:44:36;96335.40;;;5.17;86.80
75513;BME280;64090;49.770;18.760;2024-03-25T06:47:39;96334.11;;;5.12;86.33
75513;BME280;64090;49.770;18.760;2024-03-25T06:50:54;96336.77;;;5.16;86.03
75513;BME280;64090;49.770;18.760;2024-03-25T06:53:59;96337.40;;;5.27;85.68
75513;BME280;64090;49.770;18.760;2024-03-25T06:57:02;96338.30;;;5.38;85.46
75513;BME280;64090;49.770;18.760;2024-03-25T07:00:05;96338.27;;;5.59;84.52
75513;BME280;64090;49.770;18.760;2024-03-25T07:03:09;96346.38;;;5.72;84.14
75513;BME280;64090;49.770;18.760;2024-03-25T07:06:12;96345.05;;;5.91;83.76
75513;BME280;64090;49.770;18.760;2024-03-25T07:09:14;96346.65;;;6.01;83.11
75513;BME280;64090;49.770;18.760;2024-03-25T07:12:17;96348.52;;;5.98;83.06
75513;BME280;64090;49.770;18.760;2024-03-25T07:15:20;96354.46;;;5.94;83.12
75513;BME280;64090;49.770;18.760;2024-03-25T07:18:23;96355.45;;;5.91;83.14
75513;BME280;64090;49.770;18.760;2024-03-25T07:21:25;96351.57;;;5.94;83.39
75513;BME280;64090;49.770;18.760;2024-03-25T07:24:29;96357.11;;;5.89;83.91
75513;BME280;64090;49.770;18.760;2024-03-25T07:27:32;96357.95;;;5.79;83.67
75513;BME280;64090;49.770;18.760;2024-03-25T07:30:35;96360.84;;;5.69;83.23
75513;BME280;64090;49.770;18.760;2024-03-25T07:33:37;96354.94;;;5.65;83.46
75513;BME280;64090;49.770;18.760;2024-03-25T07:36:40;96356.30;;;5.53;83.89
75513;BME280;64090;49.770;18.760;2024-03-25T07:39:42;96370.13;;;5.67;83.43
75513;BME280;64090;49.770;18.760;2024-03-25T07:42:45;96372.71;;;5.73;83.07
75513;BME280;64090;49.770;18.760;2024-03-25T07:45:48;96373.54;;;5.68;83.79
75513;BME280;64090;49.770;18.760;2024-03-25T07:48:51;96374.52;;;5.61;84.05
75513;BME280;64090;49.770;18.760;2024-03-25T07:51:54;96381.58;;;5.63;83.62
75513;BME280;64090;49.770;18.760;2024-03-25T07:54:57;96387.52;;;5.60;83.33
75513;BME280;64090;49.770;18.760;2024-03-25T07:58:00;96397.00;;;5.44;83.42
75513;BME280;64090;49.770;18.760;2024-03-25T08:01:02;96395.37;;;5.50;83.29
75513;BME280;64090;49.770;18.760;2024-03-25T08:04:05;96401.67;;;5.53;82.90
75513;BME280;64090;49.770;18.760;2024-03-25T08:07:08;96398.06;;;5.56;82.91
75513;BME280;64090;49.770;18.760;2024-03-25T08:10:10;96406.52;;;5.63;82.69
75513;BME280;64090;49.770;18.760;2024-03-25T08:13:13;96410.61;;;5.60;83.11
75513;BME280;64090;49.770;18.760;2024-03-25T08:16:16;96411.50;;;5.68;83.46
75513;BME280;64090;49.770;18.760;2024-03-25T08:19:18;96403.80;;;5.91;82.84
75513;BME280;64090;49.770;18.760;2024-03-25T08:22:21;96408.05;;;6.20;82.93
75513;BME280;64090;49.770;18.760;2024-03-25T08:25:24;96410.34;;;6.66;82.31
75513;BME280;64090;49.770;18.760;2024-03-25T08:28:26;96413.30;;;7.12;81.60
75513;BME280;64090;49.770;18.760;2024-03-25T08:31:29;96414.77;;;7.60;80.58
75513;BME280;64090;49.770;18.760;2024-03-25T08:34:31;96412.45;;;7.97;79.90
75513;BME280;64090;49.770;18.760;2024-03-25T08:37:34;96415.70;;;8.09;77.78
75513;BME280;64090;49.770;18.760;2024-03-25T08:40:36;96418.94;;;8.34;78.21
75513;BME280;64090;49.770;18.760;2024-03-25T08:43:39;96418.45;;;8.30;76.50
75513;BME280;64090;49.770;18.760;2024-03-25T08:46:42;96422.48;;;8.43;76.05
75513;BME280;64090;49.770;18.760;2024-03-25T08:49:44;96423.67;;;8.56;74.64
75513;BME280;64090;49.770;18.760;2024-03-25T08:52:47;96422.06;;;8.63;74.98
75513;BME280;64090;49.770;18.760;2024-03-25T08:55:50;96430.77;;;8.68;74.00
75513;BME280;64090;49.770;18.760;2024-03-25T08:58:52;96432.53;;;8.75;73.39
75513;BME280;64090;49.770;18.760;2024-03-25T09:01:57;96434.63;;;8.85;73.24
75513;BME280;64090;49.770;18.760;2024-03-25T09:04:59;96440.99;;;8.99;72.74
75513;BME280;64090;49.770;18.760;2024-03-25T09:08:02;96439.41;;;9.30;73.18
75513;BME280;64090;49.770;18.760;2024-03-25T09:11:05;96441.90;;;9.35;71.84
75513;BME280;64090;49.770;18.760;2024-03-25T09:14:09;96442.96;;;9.44;71.25
75513;BME280;64090;49.770;18.760;2024-03-25T09:17:12;96446.59;;;9.18;70.10
75513;BME280;64090;49.770;18.760;2024-03-25T09:20:15;96445.37;;;9.09;70.09
75513;BME280;64090;49.770;18.760;2024-03-25T09:23:22;96441.16;;;8.96;69.22
75513;BME280;64090;49.770;18.760;2024-03-25T09:26:25;96441.52;;;8.93;68.60
75513;BME280;64090;49.770;18.760;2024-03-25T09:29:29;96448.73;;;9.14;69.46
75513;BME280;64090;49.770;18.760;2024-03-25T09:32:31;96449.28;;;9.33;68.22
75513;BME280;64090;49.770;18.760;2024-03-25T09:35:34;96457.93;;;9.82;69.32
75513;BME280;64090;49.770;18.760;2024-03-25T09:38:37;96446.38;;;10.39;68.62
75513;BME280;64090;49.770;18.760;2024-03-25T09:41:43;96438.02;;;10.57;66.62
75513;BME280;64090;49.770;18.760;2024-03-25T09:44:46;96437.02;;;10.66;66.30
75513;BME280;64090;49.770;18.760;2024-03-25T09:47:48;96429.64;;;10.87;66.20
75513;BME280;64090;49.770;18.760;2024-03-25T09:50:53;96428.48;;;11.44;65.49
75513;BME280;64090;49.770;18.760;2024-03-25T09:53:56;96440.94;;;11.85;61.68
75513;BME280;64090;49.770;18.760;2024-03-25T09:57:00;96443.36;;;11.82;59.58
75513;BME280;64090;49.770;18.760;2024-03-25T10:00:05;96443.55;;;11.91;61.39
75513;BME280;64090;49.770;18.760;2024-03-25T10:03:11;96449.86;;;11.44;62.06
75513;BME280;64090;49.770;18.760;2024-03-25T10:06:13;96445.89;;;11.05;63.47
75513;BME280;64090;49.770;18.760;2024-03-25T10:09:20;96451.90;;;10.62;63.72
75513;BME280;64090;49.770;18.760;2024-03-25T10:12:22;96463.77;;;10.05;65.00
75513;BME280;64090;49.770;18.760;2024-03-25T10:15:26;96477.02;;;9.29;65.36
75513;BME280;64090;49.770;18.760;2024-03-25T10:18:29;96481.85;;;8.75;66.18
75513;BME280;64090;49.770;18.760;2024-03-25T10:21:32;96490.98;;;8.24;66.67
75513;BME280;64090;49.770;18.760;2024-03-25T10:24:42;96503.33;;;7.41;69.66
75513;BME280;64090;49.770;18.760;2024-03-25T10:27:53;96524.20;;;6.88;69.73
75513;BME280;64090;49.770;18.760;2024-03-25T10:30:56;96527.86;;;5.68;73.86
75513;BME280;64090;49.770;18.760;2024-03-25T10:34:06;96508.72;;;4.74;76.25
75513;BME280;64090;49.770;18.760;2024-03-25T10:37:10;96505.38;;;4.29;78.34
75513;BME280;64090;49.770;18.760;2024-03-25T10:40:13;96505.88;;;4.04;78.08
75513;BME280;64090;49.770;18.760;2024-03-25T10:43:16;96506.15;;;3.94;78.29
75513;BME280;64090;49.770;18.760;2024-03-25T10:46:21;96505.90;;;3.86;78.73
75513;BME280;64090;49.770;18.760;2024-03-25T10:52:37;96501.99;;;4.12;77.85
75513;BME280;64090;49.770;18.760;2024-03-25T10:55:40;96493.92;;;4.29;78.95
75513;BME280;64090;49.770;18.760;2024-03-25T10:58:56;96495.56;;;4.70;79.36
75513;BME280;64090;49.770;18.760;2024-03-25T11:01:59;96490.12;;;5.18;81.07
75513;BME280;64090;49.770;18.760;2024-03-25T11:05:02;96487.34;;;5.67;81.49
75513;BME280;64090;49.770;18.760;2024-03-25T11:08:15;96489.27;;;6.18;83.04
75513;BME280;64090;49.770;18.760;2024-03-25T11:11:21;96485.39;;;6.85;82.57
75513;BME280;64090;49.770;18.760;2024-03-25T11:14:26;96480.65;;;7.46;81.21
75513;BME280;64090;49.770;18.760;2024-03-25T11:17:32;96475.63;;;7.94;78.66
75513;BME280;64090;49.770;18.760;2024-03-25T11:20:34;96474.60;;;8.10;79.99
75513;BME280;64090;49.770;18.760;2024-03-25T11:23:43;96463.16;;;8.31;79.71
75513;BME280;64090;49.770;18.760;2024-03-25T11:26:51;96455.84;;;8.61;79.88
75513;BME280;64090;49.770;18.760;2024-03-25T11:29:53;96457.38;;;8.83;79.40
75513;BME280;64090;49.770;18.760;2024-03-25T11:32:57;96463.77;;;8.89;80.35
75513;BME280;64090;49.770;18.760;2024-03-25T11:35:59;96456.77;;;8.84;79.67
75513;BME280;64090;49.770;18.760;2024-03-25T11:39:03;96461.09;;;8.44;77.02
75513;BME280;64090;49.770;18.760;2024-03-25T11:42:08;96484.94;;;7.82;78.68
75513;BME280;64090;49.770;18.760;2024-03-25T11:45:21;96489.45;;;7.04;76.58
75513;BME280;64090;49.770;18.760;2024-03-25T11:48:24;96499.35;;;6.58;78.91
75513;BME280;64090;49.770;18.760;2024-03-25T11:51:26;96501.74;;;6.51;81.10
75513;BME280;64090;49.770;18.760;2024-03-25T11:54:29;96518.45;;;6.22;83.02
75513;BME280;64090;49.770;18.760;2024-03-25T11:57:32;96539.48;;;5.95;84.12
75513;BME280;64090;49.770;18.760;2024-03-25T12:00:35;96540.95;;;5.77;85.01
75513;BME280;64090;49.770;18.760;2024-03-25T12:03:38;96540.61;;;5.55;85.11
75513;BME280;64090;49.770;18.760;2024-03-25T12:06:45;96548.63;;;5.33;86.45
75513;BME280;64090;49.770;18.760;2024-03-25T12:09:47;96553.23;;;5.04;86.44
75513;BME280;64090;49.770;18.760;2024-03-25T12:13:08;96546.98;;;4.75;85.64
75513;BME280;64090;49.770;18.760;2024-03-25T12:16:11;96535.21;;;4.74;86.10
75513;BME280;64090;49.770;18.760;2024-03-25T12:19:15;96524.27;;;5.07;85.55
75513;BME280;64090;49.770;18.760;2024-03-25T12:22:18;96516.83;;;5.57;84.87
75513;BME280;64090;49.770;18.760;2024-03-25T12:25:21;96511.06;;;6.03;84.09
75513;BME280;64090;49.770;18.760;2024-03-25T12:28:23;96507.80;;;6.39;83.46
75513;BME280;64090;49.770;18.760;2024-03-25T12:31:26;96506.94;;;6.59;82.85
75513;BME280;64090;49.770;18.760;2024-03-25T12:34:30;96509.01;;;6.70;82.30
75513;BME280;64090;49.770;18.760;2024-03-25T12:37:32;96508.69;;;6.88;81.85
75513;BME280;64090;49.770;18.760;2024-03-25T12:40:35;96511.13;;;7.22;81.83
75513;BME280;64090;49.770;18.760;2024-03-25T12:43:42;96513.10;;;7.56;81.46
75513;BME280;64090;49.770;18.760;2024-03-25T12:46:45;96512.44;;;7.85;80.85
75513;BME280;64090;49.770;18.760;2024-03-25T12:49:48;96512.70;;;7.87;79.86
75513;BME280;64090;49.770;18.760;2024-03-25T12:52:51;96513.73;;;7.86;80.21
75513;BME280;64090;49.770;18.760;2024-03-25T12:55:53;96512.40;;;7.89;80.82
75513;BME280;64090;49.770;18.760;2024-03-25T12:58:56;96515.41;;;7.89;81.14
75513;BME280;64090;49.770;18.760;2024-03-25T13:01:58;96517.48;;;7.82;80.92
75513;BME280;64090;49.770;18.760;2024-03-25T13:05:01;96517.65;;;7.81;80.74
75513;BME280;64090;49.770;18.760;2024-03-25T13:08:06;96520.90;;;7.85;81.43
75513;BME280;64090;49.770;18.760;2024-03-25T13:11:09;96519.52;;;7.89;78.46
75513;BME280;64090;49.770;18.760;2024-03-25T13:14:12;96519.91;;;7.86;78.82
75513;BME280;64090;49.770;18.760;2024-03-25T13:17:15;96507.13;;;7.78;78.31
75513;BME280;64090;49.770;18.760;2024-03-25T13:20:17;96502.77;;;7.61;76.99
75513;BME280;64090;49.770;18.760;2024-03-25T13:23:20;96500.54;;;7.45;74.87
75513;BME280;64090;49.770;18.760;2024-03-25T13:26:23;96507.05;;;7.43;75.07
75513;BME280;64090;49.770;18.760;2024-03-25T13:29:25;96507.25;;;7.46;75.92
75513;BME280;64090;49.770;18.760;2024-03-25T13:32:28;96505.68;;;7.52;76.53
75513;BME280;64090;49.770;18.760;2024-03-25T13:35:32;96505.02;;;7.59;75.86
75513;BME280;64090;49.770;18.760;2024-03-25T13:38:35;96508.05;;;7.71;75.91
75513;BME280;64090;49.770;18.760;2024-03-25T13:41:37;96507.52;;;7.85;76.18
75513;BME280;64090;49.770;18.760;2024-03-25T13:44:40;96513.73;;;7.88;75.09
75513;BME280;64090;49.770;18.760;2024-03-25T13:47:43;96517.02;;;8.00;75.54
75513;BME280;64090;49.770;18.760;2024-03-25T13:50:45;96510.14;;;8.15;75.48
75513;BME280;64090;49.770;18.760;2024-03-25T13:53:48;96509.66;;;8.33;75.01
75513;BME280;64090;49.770;18.760;2024-03-25T13:56:51;96504.13;;;8.58;74.40
75513;BME280;64090;49.770;18.760;2024-03-25T13:59:53;96503.73;;;8.86;73.61
75513;BME280;64090;49.770;18.760;2024-03-25T14:02:56;96508.00;;;9.04;71.63
75513;BME280;64090;49.770;18.760;2024-03-25T14:05:58;96510.87;;;9.10;73.14
75513;BME280;64090;49.770;18.760;2024-03-25T14:09:01;96513.10;;;9.10;73.21
75513;BME280;64090;49.770;18.760;2024-03-25T14:12:06;96514.92;;;9.03;72.24
75513;BME280;64090;49.770;18.760;2024-03-25T14:15:09;96520.35;;;8.99;71.86
75513;BME280;64090;49.770;18.760;2024-03-25T14:18:12;96523.52;;;9.01;73.08
75513;BME280;64090;49.770;18.760;2024-03-25T14:21:15;96525.77;;;9.00;73.00
75513;BME280;64090;49.770;18.760;2024-03-25T14:24:17;96529.48;;;8.96;72.80
75513;BME280;64090;49.770;18.760;2024-03-25T14:27:20;96534.80;;;8.98;72.34
75513;BME280;64090;49.770;18.760;2024-03-25T14:30:23;96542.70;;;9.13;73.14
75513;BME280;64090;49.770;18.760;2024-03-25T14:33:25;96547.17;;;9.15;72.81
75513;BME280;64090;49.770;18.760;2024-03-25T14:36:28;96546.97;;;9.14;73.41
75513;BME280;64090;49.770;18.760;2024-03-25T14:39:31;96547.96;;;9.05;73.10
75513;BME280;64090;49.770;18.760;2024-03-25T14:42:33;96547.61;;;8.84;71.08
75513;BME280;64090;49.770;18.760;2024-03-25T14:45:36;96551.20;;;8.78;73.43
75513;BME280;64090;49.770;18.760;2024-03-25T14:48:39;96557.52;;;8.61;72.83
75513;BME280;64090;49.770;18.760;2024-03-25T14:51:41;96563.05;;;8.30;72.77
75513;BME280;64090;49.770;18.760;2024-03-25T14:54:44;96572.08;;;8.06;72.06
75513;BME280;64090;49.770;18.760;2024-03-25T14:57:47;96572.55;;;7.59;72.40
75513;BME280;64090;49.770;18.760;2024-03-25T15:00:49;96582.79;;;7.27;74.36
75513;BME280;64090;49.770;18.760;2024-03-25T15:03:52;96594.23;;;7.07;75.00
75513;BME280;64090;49.770;18.760;2024-03-25T15:06:55;96597.11;;;6.60;77.25
75513;BME280;64090;49.770;18.760;2024-03-25T15:09:59;96597.20;;;6.27;78.34
75513;BME280;64090;49.770;18.760;2024-03-25T15:13:02;96602.13;;;6.15;78.63
75513;BME280;64090;49.770;18.760;2024-03-25T15:16:05;96606.52;;;6.14;78.73
75513;BME280;64090;49.770;18.760;2024-03-25T15:19:08;96610.29;;;6.16;79.15
75513;BME280;64090;49.770;18.760;2024-03-25T15:22:10;96610.36;;;6.20;79.28
75513;BME280;64090;49.770;18.760;2024-03-25T15:25:13;96611.13;;;6.32;79.43
75513;BME280;64090;49.770;18.760;2024-03-25T15:28:17;96616.45;;;6.27;79.67
75513;BME280;64090;49.770;18.760;2024-03-25T15:31:19;96623.48;;;6.20;80.02
75513;BME280;64090;49.770;18.760;2024-03-25T15:34:22;96622.61;;;6.05;80.10
75513;BME280;64090;49.770;18.760;2024-03-25T15:37:25;96622.30;;;5.90;80.39
75513;BME280;64090;49.770;18.760;2024-03-25T15:40:27;96622.05;;;5.80;80.50
75513;BME280;64090;49.770;18.760;2024-03-25T15:43:30;96620.30;;;5.77;81.07
75513;BME280;64090;49.770;18.760;2024-03-25T15:46:33;96615.73;;;5.83;81.10
75513;BME280;64090;49.770;18.760;2024-03-25T15:49:36;96613.41;;;5.92;81.04
75513;BME280;64090;49.770;18.760;2024-03-25T15:52:38;96615.75;;;5.97;80.66
75513;BME280;64090;49.770;18.760;2024-03-25T15:55:42;96613.88;;;5.94;80.54
75513;BME280;64090;49.770;18.760;2024-03-25T15:58:45;96615.16;;;5.94;81.42
75513;BME280;64090;49.770;18.760;2024-03-25T16:01:47;96614.95;;;5.92;81.76
75513;BME280;64090;49.770;18.760;2024-03-25T16:04:51;96618.83;;;5.92;81.50
75513;BME280;64090;49.770;18.760;2024-03-25T16:07:54;96621.98;;;5.95;81.28
75513;BME280;64090;49.770;18.760;2024-03-25T16:10:57;96623.67;;;5.96;81.20
75513;BME280;64090;49.770;18.760;2024-03-25T16:13:59;96624.36;;;5.93;81.33
75513;BME280;64090;49.770;18.760;2024-03-25T16:17:02;96621.60;;;5.90;81.12
75513;BME280;64090;49.770;18.760;2024-03-25T16:20:05;96626.43;;;5.79;81.41
75513;BME280;64090;49.770;18.760;2024-03-25T16:23:09;96629.70;;;5.64;82.35